LEBB/BIO METAR and TAF weather

Enter ICAO airport designator
Station Type Date Time Source
LEBB METAR 2019/10/23 02:00 UTC NOAA

LEBB 230200Z AUTO VRB01KT 7000 FEW005 SCT019 13/13 Q1007


Station Type Date Time Source
LEBB Decoded METAR 2019/10/23 02:00 UTC NOAA

Bilbao / Sondica, Spain (LEBB) 43-18N 002-56W 37M
Oct 22, 2019 - 10:00 PM EDT / 2019.10.23 0200 UTC
Wind: Variable at 1 MPH (1 KT):0
Visibility: 4 mile(s):0
Sky conditions: partly cloudy
Temperature: 55 F (13 C)
Dew Point: 55 F (13 C)
Relative Humidity: 100%
Pressure (altimeter): 29.74 in. Hg (1007 hPa)
ob: LEBB 230200Z AUTO VRB01KT 7000 FEW005 SCT019 13/13 Q1007
cycle: 2

Station Type Date Time Source
LEBB TAF 2019/10/22 18:27 UTC NOAA

TAF LEBB 221700Z 2218/2318 VRB04KT 9999 FEW020 SCT035 TX11/2222Z TN07/2306Z
TEMPO 2218/2224 36008KT
TEMPO 2218/2318 3000 RA SHRA BKN010 SCT030TCU PROB40
TEMPO 2222/2312 1400 RA BKN005
BECMG 2304/2308 28010KT PROB40
TEMPO 2309/2318 28015G30KT 1500 +SHRA TS SCT020CB

Example: see airport list